sensor_id;sensor_type;location;lat;lon;timestamp;temperature;humidity
59041;DHT22;44825;53.200;6.448;2022-07-06T00:02:07;15.40;99.90
59041;DHT22;44825;53.200;6.448;2022-07-06T00:04:34;15.40;99.90
59041;DHT22;44825;53.200;6.448;2022-07-06T00:07:05;15.40;99.90
59041;DHT22;44825;53.200;6.448;2022-07-06T00:09:32;15.40;99.90
59041;DHT22;44825;53.200;6.448;2022-07-06T00:12:00;15.30;99.90
59041;DHT22;44825;53.200;6.448;2022-07-06T00:14:27;15.30;99.90
59041;DHT22;44825;53.200;6.448;2022-07-06T00:16:54;15.20;99.90
59041;DHT22;44825;53.200;6.448;2022-07-06T00:19:23;15.20;99.90
59041;DHT22;44825;53.200;6.448;2022-07-06T00:21:50;15.20;99.90
59041;DHT22;44825;53.200;6.448;2022-07-06T00:24:18;15.20;99.90
59041;DHT22;44825;53.200;6.448;2022-07-06T00:26:45;15.20;99.90
59041;DHT22;44825;53.200;6.448;2022-07-06T00:29:12;15.10;99.90
59041;DHT22;44825;53.200;6.448;2022-07-06T00:31:40;15.20;99.90
59041;DHT22;44825;53.200;6.448;2022-07-06T00:34:07;15.20;99.90
59041;DHT22;44825;53.200;6.448;2022-07-06T00:36:36;15.20;99.90
59041;DHT22;44825;53.200;6.448;2022-07-06T00:39:03;15.20;99.90
59041;DHT22;44825;53.200;6.448;2022-07-06T00:41:30;15.20;99.90
59041;DHT22;44825;53.200;6.448;2022-07-06T00:43:58;15.30;99.90
59041;DHT22;44825;53.200;6.448;2022-07-06T00:46:27;15.30;99.90
59041;DHT22;44825;53.200;6.448;2022-07-06T00:48:55;15.30;99.90
59041;DHT22;44825;53.200;6.448;2022-07-06T00:51:25;15.30;99.90
59041;DHT22;44825;53.200;6.448;2022-07-06T00:53:55;15.30;99.90
59041;DHT22;44825;53.200;6.448;2022-07-06T00:56:23;15.30;99.90
59041;DHT22;44825;53.200;6.448;2022-07-06T00:58:51;15.30;99.90
59041;DHT22;44825;53.200;6.448;2022-07-06T01:01:18;15.30;99.90
59041;DHT22;44825;53.200;6.448;2022-07-06T01:03:45;15.30;99.90
59041;DHT22;44825;53.200;6.448;2022-07-06T01:06:12;15.30;99.90
59041;DHT22;44825;53.200;6.448;2022-07-06T01:08:40;15.40;99.90
59041;DHT22;44825;53.200;6.448;2022-07-06T01:11:10;15.30;99.90
59041;DHT22;44825;53.200;6.448;2022-07-06T01:13:39;15.30;99.90
59041;DHT22;44825;53.200;6.448;2022-07-06T01:16:07;15.30;99.90
59041;DHT22;44825;53.200;6.448;2022-07-06T01:18:34;15.40;99.90
59041;DHT22;44825;53.200;6.448;2022-07-06T01:21:08;15.40;99.90
59041;DHT22;44825;53.200;6.448;2022-07-06T01:23:39;15.50;99.90
59041;DHT22;44825;53.200;6.448;2022-07-06T01:26:09;15.30;99.90
59041;DHT22;44825;53.200;6.448;2022-07-06T01:28:37;15.30;99.90
59041;DHT22;44825;53.200;6.448;2022-07-06T01:31:04;15.30;99.90
59041;DHT22;44825;53.200;6.448;2022-07-06T01:33:32;15.30;99.90
59041;DHT22;44825;53.200;6.448;2022-07-06T01:35:59;15.40;99.90
59041;DHT22;44825;53.200;6.448;2022-07-06T01:38:28;15.40;99.90
59041;DHT22;44825;53.200;6.448;2022-07-06T01:40:55;15.40;99.90
59041;DHT22;44825;53.200;6.448;2022-07-06T01:43:23;15.40;99.90
59041;DHT22;44825;53.200;6.448;2022-07-06T01:45:50;15.40;99.90
59041;DHT22;44825;53.200;6.448;2022-07-06T01:48:17;15.40;99.90
59041;DHT22;44825;53.200;6.448;2022-07-06T01:50:45;15.50;99.90
59041;DHT22;44825;53.200;6.448;2022-07-06T01:53:12;15.40;99.90
59041;DHT22;44825;53.200;6.448;2022-07-06T01:55:41;15.40;99.90
59041;DHT22;44825;53.200;6.448;2022-07-06T01:58:08;15.40;99.90
59041;DHT22;44825;53.200;6.448;2022-07-06T02:00:35;15.40;99.90
59041;DHT22;44825;53.200;6.448;2022-07-06T02:03:03;15.40;99.90
59041;DHT22;44825;53.200;6.448;2022-07-06T02:05:30;15.40;99.90
59041;DHT22;44825;53.200;6.448;2022-07-06T02:07:57;15.40;99.90
59041;DHT22;44825;53.200;6.448;2022-07-06T02:10:25;15.40;99.90
59041;DHT22;44825;53.200;6.448;2022-07-06T02:12:53;15.30;99.90
59041;DHT22;44825;53.200;6.448;2022-07-06T02:15:21;15.30;99.90
59041;DHT22;44825;53.200;6.448;2022-07-06T02:17:48;15.40;99.90
59041;DHT22;44825;53.200;6.448;2022-07-06T02:20:15;15.40;99.90
59041;DHT22;44825;53.200;6.448;2022-07-06T02:22:43;15.40;99.90
59041;DHT22;44825;53.200;6.448;2022-07-06T02:25:10;15.40;99.90
59041;DHT22;44825;53.200;6.448;2022-07-06T02:27:37;15.30;99.90
59041;DHT22;44825;53.200;6.448;2022-07-06T02:30:07;15.40;99.90
59041;DHT22;44825;53.200;6.448;2022-07-06T02:32:34;15.30;99.90
59041;DHT22;44825;53.200;6.448;2022-07-06T02:35:02;15.30;99.90
59041;DHT22;44825;53.200;6.448;2022-07-06T02:37:29;15.20;99.90
59041;DHT22;44825;53.200;6.448;2022-07-06T02:39:56;15.20;99.90
59041;DHT22;44825;53.200;6.448;2022-07-06T02:42:24;15.10;99.90
59041;DHT22;44825;53.200;6.448;2022-07-06T02:44:52;15.10;99.90
59041;DHT22;44825;53.200;6.448;2022-07-06T02:47:21;15.00;99.90
59041;DHT22;44825;53.200;6.448;2022-07-06T02:49:48;15.00;99.90
59041;DHT22;44825;53.200;6.448;2022-07-06T02:52:16;14.90;99.90
59041;DHT22;44825;53.200;6.448;2022-07-06T02:54:43;14.90;99.90
59041;DHT22;44825;53.200;6.448;2022-07-06T02:57:10;14.80;99.90
59041;DHT22;44825;53.200;6.448;2022-07-06T02:59:38;14.80;99.90
59041;DHT22;44825;53.200;6.448;2022-07-06T03:02:05;14.80;99.90
59041;DHT22;44825;53.200;6.448;2022-07-06T03:04:34;14.70;99.90
59041;DHT22;44825;53.200;6.448;2022-07-06T03:07:02;14.70;99.90
59041;DHT22;44825;53.200;6.448;2022-07-06T03:09:29;14.60;99.90
59041;DHT22;44825;53.200;6.448;2022-07-06T03:11:56;14.60;99.90
59041;DHT22;44825;53.200;6.448;2022-07-06T03:14:24;14.60;99.90
59041;DHT22;44825;53.200;6.448;2022-07-06T03:16:53;14.60;99.90
59041;DHT22;44825;53.200;6.448;2022-07-06T03:19:20;14.50;99.90
59041;DHT22;44825;53.200;6.448;2022-07-06T03:21:49;14.50;99.90
59041;DHT22;44825;53.200;6.448;2022-07-06T03:24:16;14.50;99.90
59041;DHT22;44825;53.200;6.448;2022-07-06T03:26:44;14.50;99.90
59041;DHT22;44825;53.200;6.448;2022-07-06T03:29:11;14.40;99.90
59041;DHT22;44825;53.200;6.448;2022-07-06T03:31:38;14.40;99.90
59041;DHT22;44825;53.200;6.448;2022-07-06T03:34:06;14.30;99.90
59041;DHT22;44825;53.200;6.448;2022-07-06T03:36:33;14.30;99.90
59041;DHT22;44825;53.200;6.448;2022-07-06T03:39:02;14.30;99.90
59041;DHT22;44825;53.200;6.448;2022-07-06T03:41:29;14.20;99.90
59041;DHT22;44825;53.200;6.448;2022-07-06T03:43:57;14.20;99.90
59041;DHT22;44825;53.200;6.448;2022-07-06T03:46:25;14.20;99.90
59041;DHT22;44825;53.200;6.448;2022-07-06T03:48:52;14.10;99.90
59041;DHT22;44825;53.200;6.448;2022-07-06T03:51:19;14.10;99.90
59041;DHT22;44825;53.200;6.448;2022-07-06T03:53:46;14.10;99.90
59041;DHT22;44825;53.200;6.448;2022-07-06T03:56:15;14.10;99.90
59041;DHT22;44825;53.200;6.448;2022-07-06T03:58:55;14.10;99.90
59041;DHT22;44825;53.200;6.448;2022-07-06T04:01:22;14.20;99.90
59041;DHT22;44825;53.200;6.448;2022-07-06T04:03:50;14.30;99.90
59041;DHT22;44825;53.200;6.448;2022-07-06T04:06:17;14.40;99.90
59041;DHT22;44825;53.200;6.448;2022-07-06T04:08:45;14.50;99.90
59041;DHT22;44825;53.200;6.448;2022-07-06T04:11:12;14.50;99.90
59041;DHT22;44825;53.200;6.448;2022-07-06T04:13:41;14.60;99.90
59041;DHT22;44825;53.200;6.448;2022-07-06T04:16:09;14.60;99.90
59041;DHT22;44825;53.200;6.448;2022-07-06T04:18:36;14.60;99.90
59041;DHT22;44825;53.200;6.448;2022-07-06T04:21:03;14.60;99.90
59041;DHT22;44825;53.200;6.448;2022-07-06T04:23:31;14.60;99.90
59041;DHT22;44825;53.200;6.448;2022-07-06T04:25:58;14.70;99.90
59041;DHT22;44825;53.200;6.448;2022-07-06T04:28:26;14.60;99.90
59041;DHT22;44825;53.200;6.448;2022-07-06T04:30:54;14.70;99.90
59041;DHT22;44825;53.200;6.448;2022-07-06T04:33:22;14.70;99.90
59041;DHT22;44825;53.200;6.448;2022-07-06T04:35:49;14.80;99.90
59041;DHT22;44825;53.200;6.448;2022-07-06T04:38:17;14.80;99.90
59041;DHT22;44825;53.200;6.448;2022-07-06T04:40:44;14.80;99.90
59041;DHT22;44825;53.200;6.448;2022-07-06T04:43:13;14.80;99.90
59041;DHT22;44825;53.200;6.448;2022-07-06T04:45:40;14.80;99.90
59041;DHT22;44825;53.200;6.448;2022-07-06T04:48:09;14.90;99.90
59041;DHT22;44825;53.200;6.448;2022-07-06T04:50:36;14.80;99.90
59041;DHT22;44825;53.200;6.448;2022-07-06T04:53:03;14.90;99.90
59041;DHT22;44825;53.200;6.448;2022-07-06T04:55:31;14.90;99.90
59041;DHT22;44825;53.200;6.448;2022-07-06T04:57:58;14.90;99.90
59041;DHT22;44825;53.200;6.448;2022-07-06T05:00:25;14.90;99.90
59041;DHT22;44825;53.200;6.448;2022-07-06T05:02:53;14.90;99.90
59041;DHT22;44825;53.200;6.448;2022-07-06T05:05:21;14.90;99.90
59041;DHT22;44825;53.200;6.448;2022-07-06T05:07:49;15.00;99.90
59041;DHT22;44825;53.200;6.448;2022-07-06T05:10:16;15.00;99.90
59041;DHT22;44825;53.200;6.448;2022-07-06T05:12:43;15.00;99.90
59041;DHT22;44825;53.200;6.448;2022-07-06T05:15:11;15.00;99.90
59041;DHT22;44825;53.200;6.448;2022-07-06T05:17:38;15.00;99.90
59041;DHT22;44825;53.200;6.448;2022-07-06T05:20:07;15.00;99.90
59041;DHT22;44825;53.200;6.448;2022-07-06T05:22:36;15.00;99.90
59041;DHT22;44825;53.200;6.448;2022-07-06T05:25:03;15.10;99.90
59041;DHT22;44825;53.200;6.448;2022-07-06T05:27:31;15.00;99.90
59041;DHT22;44825;53.200;6.448;2022-07-06T05:29:58;15.00;99.90
59041;DHT22;44825;53.200;6.448;2022-07-06T05:32:26;15.00;99.90
59041;DHT22;44825;53.200;6.448;2022-07-06T05:34:53;15.00;99.90
59041;DHT22;44825;53.200;6.448;2022-07-06T05:37:20;15.00;99.90
59041;DHT22;44825;53.200;6.448;2022-07-06T05:39:49;15.00;99.90
59041;DHT22;44825;53.200;6.448;2022-07-06T05:42:16;15.00;99.90
59041;DHT22;44825;53.200;6.448;2022-07-06T05:44:44;15.10;99.90
59041;DHT22;44825;53.200;6.448;2022-07-06T05:47:11;15.20;99.90
59041;DHT22;44825;53.200;6.448;2022-07-06T05:49:56;15.30;99.90
59041;DHT22;44825;53.200;6.448;2022-07-06T05:52:43;15.40;99.90
59041;DHT22;44825;53.200;6.448;2022-07-06T05:55:14;15.40;99.90
59041;DHT22;44825;53.200;6.448;2022-07-06T05:57:41;15.40;99.90
59041;DHT22;44825;53.200;6.448;2022-07-06T06:00:09;15.30;99.90
59041;DHT22;44825;53.200;6.448;2022-07-06T06:02:37;15.40;99.90
59041;DHT22;44825;53.200;6.448;2022-07-06T06:05:06;15.40;99.90
59041;DHT22;44825;53.200;6.448;2022-07-06T06:07:35;15.30;99.90
59041;DHT22;44825;53.200;6.448;2022-07-06T06:10:05;15.30;99.90
59041;DHT22;44825;53.200;6.448;2022-07-06T06:12:34;15.30;99.90
59041;DHT22;44825;53.200;6.448;2022-07-06T06:15:02;15.30;99.90
59041;DHT22;44825;53.200;6.448;2022-07-06T06:17:33;15.40;99.90
59041;DHT22;44825;53.200;6.448;2022-07-06T06:20:00;15.40;99.90
59041;DHT22;44825;53.200;6.448;2022-07-06T06:22:27;15.40;99.90
59041;DHT22;44825;53.200;6.448;2022-07-06T06:24:55;15.40;99.90
59041;DHT22;44825;53.200;6.448;2022-07-06T06:27:22;15.40;99.90
59041;DHT22;44825;53.200;6.448;2022-07-06T06:29:51;15.40;99.90
59041;DHT22;44825;53.200;6.448;2022-07-06T06:32:18;15.40;99.90
59041;DHT22;44825;53.200;6.448;2022-07-06T06:34:48;15.40;99.90
59041;DHT22;44825;53.200;6.448;2022-07-06T06:37:16;15.40;99.90
59041;DHT22;44825;53.200;6.448;2022-07-06T06:39:43;15.50;99.90
59041;DHT22;44825;53.200;6.448;2022-07-06T06:42:10;15.50;99.90
59041;DHT22;44825;53.200;6.448;2022-07-06T06:44:38;15.60;99.90
59041;DHT22;44825;53.200;6.448;2022-07-06T06:47:06;15.70;99.90
59041;DHT22;44825;53.200;6.448;2022-07-06T06:49:36;15.90;99.90
59041;DHT22;44825;53.200;6.448;2022-07-06T06:52:04;16.00;99.90
59041;DHT22;44825;53.200;6.448;2022-07-06T06:54:31;16.20;99.90
59041;DHT22;44825;53.200;6.448;2022-07-06T06:56:59;16.20;99.90
59041;DHT22;44825;53.200;6.448;2022-07-06T06:59:26;16.30;99.90
59041;DHT22;44825;53.200;6.448;2022-07-06T07:01:53;16.30;99.90
59041;DHT22;44825;53.200;6.448;2022-07-06T07:04:22;16.30;99.90
59041;DHT22;44825;53.200;6.448;2022-07-06T07:06:49;16.20;99.90
59041;DHT22;44825;53.200;6.448;2022-07-06T07:09:16;16.30;99.90
59041;DHT22;44825;53.200;6.448;2022-07-06T07:11:44;16.20;99.90
59041;DHT22;44825;53.200;6.448;2022-07-06T07:14:11;16.20;99.90
59041;DHT22;44825;53.200;6.448;2022-07-06T07:16:38;16.50;99.90
59041;DHT22;44825;53.200;6.448;2022-07-06T07:19:06;16.80;99.90
59041;DHT22;44825;53.200;6.448;2022-07-06T07:21:34;17.10;99.90
59041;DHT22;44825;53.200;6.448;2022-07-06T07:24:02;17.40;99.90
59041;DHT22;44825;53.200;6.448;2022-07-06T07:26:29;17.40;99.90
59041;DHT22;44825;53.200;6.448;2022-07-06T07:28:59;17.50;99.90
59041;DHT22;44825;53.200;6.448;2022-07-06T07:31:26;17.50;99.90
59041;DHT22;44825;53.200;6.448;2022-07-06T07:33:54;17.50;99.80
59041;DHT22;44825;53.200;6.448;2022-07-06T07:36:23;17.60;99.40
59041;DHT22;44825;53.200;6.448;2022-07-06T07:38:52;17.60;98.80
59041;DHT22;44825;53.200;6.448;2022-07-06T07:41:19;17.50;98.60
59041;DHT22;44825;53.200;6.448;2022-07-06T07:43:46;17.50;99.00
59041;DHT22;44825;53.200;6.448;2022-07-06T07:46:14;17.70;99.00
59041;DHT22;44825;53.200;6.448;2022-07-06T07:48:42;17.90;98.00
59041;DHT22;44825;53.200;6.448;2022-07-06T07:51:09;18.10;97.50
59041;DHT22;44825;53.200;6.448;2022-07-06T07:53:36;18.20;96.70
59041;DHT22;44825;53.200;6.448;2022-07-06T07:56:05;18.30;96.20
59041;DHT22;44825;53.200;6.448;2022-07-06T07:58:32;18.40;96.00
59041;DHT22;44825;53.200;6.448;2022-07-06T08:01:00;18.50;95.60
59041;DHT22;44825;53.200;6.448;2022-07-06T08:03:27;18.40;94.90
59041;DHT22;44825;53.200;6.448;2022-07-06T08:05:54;18.20;95.00
59041;DHT22;44825;53.200;6.448;2022-07-06T08:08:22;18.20;95.40
59041;DHT22;44825;53.200;6.448;2022-07-06T08:10:49;18.10;95.40
59041;DHT22;44825;53.200;6.448;2022-07-06T08:13:18;18.00;95.20
59041;DHT22;44825;53.200;6.448;2022-07-06T08:15:45;17.90;94.90
59041;DHT22;44825;53.200;6.448;2022-07-06T08:18:12;17.90;95.30
59041;DHT22;44825;53.200;6.448;2022-07-06T08:20:40;17.90;95.70
59041;DHT22;44825;53.200;6.448;2022-07-06T08:23:07;18.10;95.80
59041;DHT22;44825;53.200;6.448;2022-07-06T08:25:34;18.20;95.80
59041;DHT22;44825;53.200;6.448;2022-07-06T08:28:04;18.30;95.10
59041;DHT22;44825;53.200;6.448;2022-07-06T08:30:33;18.40;94.50
59041;DHT22;44825;53.200;6.448;2022-07-06T08:33:01;18.40;94.30
59041;DHT22;44825;53.200;6.448;2022-07-06T08:35:28;18.20;94.20
59041;DHT22;44825;53.200;6.448;2022-07-06T08:37:56;18.20;94.80
59041;DHT22;44825;53.200;6.448;2022-07-06T08:40:24;18.30;95.00
59041;DHT22;44825;53.200;6.448;2022-07-06T08:42:53;18.40;94.70
59041;DHT22;44825;53.200;6.448;2022-07-06T08:45:21;18.50;94.60
59041;DHT22;44825;53.200;6.448;2022-07-06T08:47:50;18.50;94.50
59041;DHT22;44825;53.200;6.448;2022-07-06T08:50:18;18.60;94.40
59041;DHT22;44825;53.200;6.448;2022-07-06T08:52:47;18.60;94.10
59041;DHT22;44825;53.200;6.448;2022-07-06T08:55:15;18.40;93.90
59041;DHT22;44825;53.200;6.448;2022-07-06T08:57:46;18.30;94.30
59041;DHT22;44825;53.200;6.448;2022-07-06T09:00:14;18.10;95.30
59041;DHT22;44825;53.200;6.448;2022-07-06T09:02:43;18.00;95.70
59041;DHT22;44825;53.200;6.448;2022-07-06T09:05:14;17.90;95.90
59041;DHT22;44825;53.200;6.448;2022-07-06T09:07:42;17.80;96.10
59041;DHT22;44825;53.200;6.448;2022-07-06T09:10:11;17.80;96.00
59041;DHT22;44825;53.200;6.448;2022-07-06T09:12:39;17.80;96.20
59041;DHT22;44825;53.200;6.448;2022-07-06T09:15:07;18.00;96.30
59041;DHT22;44825;53.200;6.448;2022-07-06T09:17:37;18.20;96.20
59041;DHT22;44825;53.200;6.448;2022-07-06T09:20:07;18.30;95.70
59041;DHT22;44825;53.200;6.448;2022-07-06T09:22:37;18.30;95.30
59041;DHT22;44825;53.200;6.448;2022-07-06T09:25:07;18.30;95.10
59041;DHT22;44825;53.200;6.448;2022-07-06T09:27:37;18.20;95.70
59041;DHT22;44825;53.200;6.448;2022-07-06T09:30:06;18.40;96.00
59041;DHT22;44825;53.200;6.448;2022-07-06T09:32:39;18.90;96.70
59041;DHT22;44825;53.200;6.448;2022-07-06T09:35:07;19.30;96.10
59041;DHT22;44825;53.200;6.448;2022-07-06T09:37:38;19.40;94.80
59041;DHT22;44825;53.200;6.448;2022-07-06T09:40:16;19.30;94.10
59041;DHT22;44825;53.200;6.448;2022-07-06T09:42:45;19.10;92.90
59041;DHT22;44825;53.200;6.448;2022-07-06T09:45:12;19.00;93.60
59041;DHT22;44825;53.200;6.448;2022-07-06T09:47:46;18.90;93.80
59041;DHT22;44825;53.200;6.448;2022-07-06T09:50:15;18.70;94.00
59041;DHT22;44825;53.200;6.448;2022-07-06T09:52:54;18.70;94.10
59041;DHT22;44825;53.200;6.448;2022-07-06T09:55:22;18.70;94.20
59041;DHT22;44825;53.200;6.448;2022-07-06T09:57:53;18.70;94.20
59041;DHT22;44825;53.200;6.448;2022-07-06T10:00:22;18.80;94.50
59041;DHT22;44825;53.200;6.448;2022-07-06T10:02:49;18.80;94.50
59041;DHT22;44825;53.200;6.448;2022-07-06T10:05:17;18.80;94.10
59041;DHT22;44825;53.200;6.448;2022-07-06T10:07:46;18.70;94.20
59041;DHT22;44825;53.200;6.448;2022-07-06T10:10:18;18.70;94.20
59041;DHT22;44825;53.200;6.448;2022-07-06T10:12:47;18.70;94.40
59041;DHT22;44825;53.200;6.448;2022-07-06T10:15:16;18.90;95.20
59041;DHT22;44825;53.200;6.448;2022-07-06T10:17:46;19.10;94.70
59041;DHT22;44825;53.200;6.448;2022-07-06T10:20:15;19.40;94.20
59041;DHT22;44825;53.200;6.448;2022-07-06T10:22:43;19.60;93.40
59041;DHT22;44825;53.200;6.448;2022-07-06T10:25:11;19.70;92.70
59041;DHT22;44825;53.200;6.448;2022-07-06T10:27:41;19.90;92.30
59041;DHT22;44825;53.200;6.448;2022-07-06T10:30:10;20.00;92.00
59041;DHT22;44825;53.200;6.448;2022-07-06T10:32:39;19.90;91.50
59041;DHT22;44825;53.200;6.448;2022-07-06T10:35:08;19.80;91.40
59041;DHT22;44825;53.200;6.448;2022-07-06T10:37:35;19.70;91.60
59041;DHT22;44825;53.200;6.448;2022-07-06T10:40:03;19.60;90.70
59041;DHT22;44825;53.200;6.448;2022-07-06T10:42:55;19.50;91.40
59041;DHT22;44825;53.200;6.448;2022-07-06T10:45:50;19.70;92.40
59041;DHT22;44825;53.200;6.448;2022-07-06T10:48:19;19.90;92.40
59041;DHT22;44825;53.200;6.448;2022-07-06T10:50:49;20.10;92.10
59041;DHT22;44825;53.200;6.448;2022-07-06T10:53:17;20.30;91.60
59041;DHT22;44825;53.200;6.448;2022-07-06T10:55:46;20.40;91.30
59041;DHT22;44825;53.200;6.448;2022-07-06T10:58:34;20.50;91.00
59041;DHT22;44825;53.200;6.448;2022-07-06T11:01:03;20.60;88.60
59041;DHT22;44825;53.200;6.448;2022-07-06T11:03:36;20.70;88.40
59041;DHT22;44825;53.200;6.448;2022-07-06T11:06:09;20.90;90.20
59041;DHT22;44825;53.200;6.448;2022-07-06T11:08:54;20.90;87.90
59041;DHT22;44825;53.200;6.448;2022-07-06T11:11:23;20.80;86.40
59041;DHT22;44825;53.200;6.448;2022-07-06T11:13:55;20.60;87.00
59041;DHT22;44825;53.200;6.448;2022-07-06T11:16:23;20.60;88.60
59041;DHT22;44825;53.200;6.448;2022-07-06T11:19:04;20.70;89.20
59041;DHT22;44825;53.200;6.448;2022-07-06T11:21:34;20.90;87.60
59041;DHT22;44825;53.200;6.448;2022-07-06T11:24:04;20.80;86.70
59041;DHT22;44825;53.200;6.448;2022-07-06T11:26:31;20.80;85.90
59041;DHT22;44825;53.200;6.448;2022-07-06T11:29:04;20.70;84.70
59041;DHT22;44825;53.200;6.448;2022-07-06T11:31:37;20.60;83.60
59041;DHT22;44825;53.200;6.448;2022-07-06T11:34:09;20.60;84.60
59041;DHT22;44825;53.200;6.448;2022-07-06T11:36:37;20.70;84.60
59041;DHT22;44825;53.200;6.448;2022-07-06T11:39:05;20.70;85.40
59041;DHT22;44825;53.200;6.448;2022-07-06T11:41:32;20.80;87.00
59041;DHT22;44825;53.200;6.448;2022-07-06T11:44:00;20.90;86.20
59041;DHT22;44825;53.200;6.448;2022-07-06T11:46:30;21.10;85.20
59041;DHT22;44825;53.200;6.448;2022-07-06T11:48:58;21.20;83.60
59041;DHT22;44825;53.200;6.448;2022-07-06T11:51:28;21.10;83.40
59041;DHT22;44825;53.200;6.448;2022-07-06T11:54:00;21.00;83.20
59041;DHT22;44825;53.200;6.448;2022-07-06T11:56:28;20.90;82.90
59041;DHT22;44825;53.200;6.448;2022-07-06T11:58:58;20.90;83.10
59041;DHT22;44825;53.200;6.448;2022-07-06T12:01:26;20.90;83.00
59041;DHT22;44825;53.200;6.448;2022-07-06T12:03:58;20.80;83.40
59041;DHT22;44825;53.200;6.448;2022-07-06T12:06:27;20.80;82.30
59041;DHT22;44825;53.200;6.448;2022-07-06T12:08:56;20.80;82.70
59041;DHT22;44825;53.200;6.448;2022-07-06T12:11:25;20.80;83.70
59041;DHT22;44825;53.200;6.448;2022-07-06T12:13:54;20.70;82.20
59041;DHT22;44825;53.200;6.448;2022-07-06T12:16:29;20.50;82.10
59041;DHT22;44825;53.200;6.448;2022-07-06T12:18:58;20.40;83.10
59041;DHT22;44825;53.200;6.448;2022-07-06T12:21:25;20.30;83.40
59041;DHT22;44825;53.200;6.448;2022-07-06T12:23:53;20.30;85.00
59041;DHT22;44825;53.200;6.448;2022-07-06T12:26:22;20.30;87.60
59041;DHT22;44825;53.200;6.448;2022-07-06T12:29:01;20.40;87.10
59041;DHT22;44825;53.200;6.448;2022-07-06T12:31:33;20.50;88.90
59041;DHT22;44825;53.200;6.448;2022-07-06T12:34:02;20.50;87.00
59041;DHT22;44825;53.200;6.448;2022-07-06T12:36:30;20.50;85.20
59041;DHT22;44825;53.200;6.448;2022-07-06T12:38:58;20.50;84.40
59041;DHT22;44825;53.200;6.448;2022-07-06T12:41:27;20.50;84.50
59041;DHT22;44825;53.200;6.448;2022-07-06T12:44:03;20.40;84.70
59041;DHT22;44825;53.200;6.448;2022-07-06T12:46:32;20.30;84.40
59041;DHT22;44825;53.200;6.448;2022-07-06T12:49:03;20.20;86.40
59041;DHT22;44825;53.200;6.448;2022-07-06T12:51:55;20.20;86.50
59041;DHT22;44825;53.200;6.448;2022-07-06T12:54:28;20.20;86.30
59041;DHT22;44825;53.200;6.448;2022-07-06T12:57:03;20.10;86.50
59041;DHT22;44825;53.200;6.448;2022-07-06T12:59:32;20.10;86.00
59041;DHT22;44825;53.200;6.448;2022-07-06T13:02:00;20.10;86.60
59041;DHT22;44825;53.200;6.448;2022-07-06T13:04:30;20.00;86.30
59041;DHT22;44825;53.200;6.448;2022-07-06T13:06:59;20.00;87.20
59041;DHT22;44825;53.200;6.448;2022-07-06T13:09:27;20.00;86.00
59041;DHT22;44825;53.200;6.448;2022-07-06T13:11:54;19.90;85.30
59041;DHT22;44825;53.200;6.448;2022-07-06T13:14:22;19.90;84.80
59041;DHT22;44825;53.200;6.448;2022-07-06T13:16:49;19.80;84.90
59041;DHT22;44825;53.200;6.448;2022-07-06T13:19:16;19.80;85.40
59041;DHT22;44825;53.200;6.448;2022-07-06T13:21:45;19.80;85.50
59041;DHT22;44825;53.200;6.448;2022-07-06T13:24:13;19.70;86.30
59041;DHT22;44825;53.200;6.448;2022-07-06T13:26:40;19.70;86.20
59041;DHT22;44825;53.200;6.448;2022-07-06T13:29:07;19.70;85.90
59041;DHT22;44825;53.200;6.448;2022-07-06T13:31:37;19.70;84.10
59041;DHT22;44825;53.200;6.448;2022-07-06T13:34:06;19.70;83.90
59041;DHT22;44825;53.200;6.448;2022-07-06T13:36:33;19.70;83.50
59041;DHT22;44825;53.200;6.448;2022-07-06T13:39:03;19.70;83.90
59041;DHT22;44825;53.200;6.448;2022-07-06T13:41:31;19.70;84.10
59041;DHT22;44825;53.200;6.448;2022-07-06T13:43:59;19.60;84.00
59041;DHT22;44825;53.200;6.448;2022-07-06T13:46:27;19.60;83.70
59041;DHT22;44825;53.200;6.448;2022-07-06T13:48:54;19.50;84.10
59041;DHT22;44825;53.200;6.448;2022-07-06T13:51:22;19.50;84.90
59041;DHT22;44825;53.200;6.448;2022-07-06T13:53:53;19.50;85.50
59041;DHT22;44825;53.200;6.448;2022-07-06T13:56:22;19.50;85.40
59041;DHT22;44825;53.200;6.448;2022-07-06T13:58:49;19.40;85.40
59041;DHT22;44825;53.200;6.448;2022-07-06T14:01:17;19.40;84.60
59041;DHT22;44825;53.200;6.448;2022-07-06T14:03:45;19.40;84.30
59041;DHT22;44825;53.200;6.448;2022-07-06T14:06:12;19.30;84.50
59041;DHT22;44825;53.200;6.448;2022-07-06T14:08:40;19.30;84.90
59041;DHT22;44825;53.200;6.448;2022-07-06T14:11:08;19.20;85.90
59041;DHT22;44825;53.200;6.448;2022-07-06T14:13:37;19.20;86.00
59041;DHT22;44825;53.200;6.448;2022-07-06T14:16:05;19.20;86.40
59041;DHT22;44825;53.200;6.448;2022-07-06T14:18:33;19.20;86.70
59041;DHT22;44825;53.200;6.448;2022-07-06T14:21:00;19.10;87.40
59041;DHT22;44825;53.200;6.448;2022-07-06T14:23:28;19.10;88.50
59041;DHT22;44825;53.200;6.448;2022-07-06T14:25:56;19.10;89.10
59041;DHT22;44825;53.200;6.448;2022-07-06T14:28:24;19.10;89.10
59041;DHT22;44825;53.200;6.448;2022-07-06T14:30:53;19.00;89.00
59041;DHT22;44825;53.200;6.448;2022-07-06T14:33:20;19.00;89.20
59041;DHT22;44825;53.200;6.448;2022-07-06T14:35:49;18.90;89.40
59041;DHT22;44825;53.200;6.448;2022-07-06T14:38:17;18.90;90.60
59041;DHT22;44825;53.200;6.448;2022-07-06T14:40:46;18.90;91.30
59041;DHT22;44825;53.200;6.448;2022-07-06T14:43:14;18.80;91.60
59041;DHT22;44825;53.200;6.448;2022-07-06T14:45:43;18.80;92.10
59041;DHT22;44825;53.200;6.448;2022-07-06T14:48:12;18.80;91.80
59041;DHT22;44825;53.200;6.448;2022-07-06T14:50:40;18.80;92.00
59041;DHT22;44825;53.200;6.448;2022-07-06T14:53:07;18.70;92.60
59041;DHT22;44825;53.200;6.448;2022-07-06T14:55:35;18.60;93.50
59041;DHT22;44825;53.200;6.448;2022-07-06T14:58:02;18.50;94.50
59041;DHT22;44825;53.200;6.448;2022-07-06T15:00:30;18.40;95.50
59041;DHT22;44825;53.200;6.448;2022-07-06T15:02:57;18.30;96.10
59041;DHT22;44825;53.200;6.448;2022-07-06T15:05:26;18.30;96.00
59041;DHT22;44825;53.200;6.448;2022-07-06T15:07:53;18.20;96.00
59041;DHT22;44825;53.200;6.448;2022-07-06T15:10:21;18.20;96.00
59041;DHT22;44825;53.200;6.448;2022-07-06T15:12:48;18.20;96.00
59041;DHT22;44825;53.200;6.448;2022-07-06T15:15:15;18.20;95.90
59041;DHT22;44825;53.200;6.448;2022-07-06T15:17:43;18.20;95.70
59041;DHT22;44825;53.200;6.448;2022-07-06T15:20:11;18.20;95.60
59041;DHT22;44825;53.200;6.448;2022-07-06T15:22:40;18.30;95.50
59041;DHT22;44825;53.200;6.448;2022-07-06T15:25:09;18.30;95.40
59041;DHT22;44825;53.200;6.448;2022-07-06T15:27:36;18.30;95.10
59041;DHT22;44825;53.200;6.448;2022-07-06T15:30:04;18.30;95.10
59041;DHT22;44825;53.200;6.448;2022-07-06T15:32:32;18.20;95.50
59041;DHT22;44825;53.200;6.448;2022-07-06T15:34:59;18.20;96.10
59041;DHT22;44825;53.200;6.448;2022-07-06T15:37:26;18.20;96.70
59041;DHT22;44825;53.200;6.448;2022-07-06T15:39:55;18.10;97.60